Aviation Digital Data Service (ADDS)

Output produced by TAFs form (0259 UTC 21 January 2018)
found at http://www.aviationweather.gov/adds/tafs/
 
KAVL 210254Z 00000KT 10SM CLR 03/01 A3024 RMK AO2 SLP242 T00330011 53012
KAVL 202335Z 2100/2124 33005KT P6SM FEW250 
     FM211000 VRB01KT 6SM BR FEW020 SCT250 
     FM211500 35005KT P6SM FEW050 SCT100 
     FM211900 17004KT P6SM BKN100